createdAt,value
2023-02-09T00:00:05.652Z,66.80
2023-02-09T00:01:05.580Z,73.00
2023-02-09T00:02:05.649Z,65.80
2023-02-09T00:03:05.568Z,62.00
2023-02-09T00:04:05.556Z,58.20
2023-02-09T00:05:05.537Z,58.50
2023-02-09T00:06:05.534Z,60.40
2023-02-09T00:07:05.513Z,60.70
2023-02-09T00:08:05.502Z,55.40
2023-02-09T00:09:05.493Z,60.50
2023-02-09T00:10:05.487Z,60.80
2023-02-09T00:11:05.477Z,62.80
2023-02-09T00:12:05.481Z,60.10
2023-02-09T00:13:05.452Z,56.90
2023-02-09T00:14:05.439Z,54.40
2023-02-09T00:15:05.426Z,54.30
2023-02-09T00:16:05.485Z,48.30
2023-02-09T00:17:05.408Z,54.30
2023-02-09T00:18:05.393Z,50.30
2023-02-09T00:19:05.402Z,54.90
2023-02-09T00:20:05.373Z,51.50
2023-02-09T00:21:05.360Z,46.40
2023-02-09T00:22:05.361Z,48.70
2023-02-09T00:23:05.340Z,46.40
2023-02-09T00:24:05.326Z,44.30
2023-02-09T00:25:05.318Z,48.90
2023-02-09T00:26:05.306Z,43.50
2023-02-09T00:27:05.296Z,50.10
2023-02-09T00:28:05.341Z,45.30
2023-02-09T00:29:05.277Z,45.10
2023-02-09T00:30:05.259Z,45.90
2023-02-09T00:31:05.294Z,43.30
2023-02-09T00:32:05.339Z,48.90
2023-02-09T00:33:05.226Z,44.80
2023-02-09T00:34:05.232Z,43.40
2023-02-09T00:35:05.205Z,47.70
2023-02-09T00:36:05.193Z,41.90
2023-02-09T00:37:05.186Z,45.00
2023-02-09T00:38:05.188Z,43.80
2023-02-09T00:39:05.160Z,43.60
2023-02-09T00:40:05.155Z,46.80
2023-02-09T00:41:05.144Z,42.10
2023-02-09T00:42:05.128Z,50.50
2023-02-09T00:43:05.120Z,44.80
2023-02-09T00:44:05.133Z,44.30
2023-02-09T00:45:05.096Z,42.10
2023-02-09T00:46:05.259Z,44.40
2023-02-09T00:47:05.072Z,47.60
2023-02-09T00:48:05.062Z,46.60
2023-02-09T00:49:05.054Z,44.90
2023-02-09T00:50:05.038Z,44.60
2023-02-09T00:51:05.043Z,45.70
2023-02-09T00:52:05.026Z,46.90
2023-02-09T00:53:05.007Z,45.40
2023-02-09T00:54:04.999Z,49.20
2023-02-09T00:55:04.987Z,45.10
2023-02-09T00:56:04.973Z,42.40
2023-02-09T00:57:04.979Z,42.60
2023-02-09T00:58:04.965Z,43.10
2023-02-09T00:59:04.944Z,44.90
2023-02-09T01:00:04.963Z,42.00
2023-02-09T01:01:05.080Z,43.40
2023-02-09T01:02:04.987Z,44.30
2023-02-09T01:03:04.895Z,41.70
2023-02-09T01:04:04.887Z,43.00
2023-02-09T01:05:04.916Z,48.80
2023-02-09T01:06:04.863Z,44.50
2023-02-09T01:07:04.849Z,45.00
2023-02-09T01:08:04.840Z,43.10
2023-02-09T01:09:04.844Z,44.60
2023-02-09T01:10:04.821Z,44.90
2023-02-09T01:11:04.805Z,46.50
2023-02-09T01:12:04.814Z,43.20
2023-02-09T01:13:04.788Z,50.20
2023-02-09T01:14:04.776Z,48.70
2023-02-09T01:15:04.761Z,44.90
2023-02-09T01:16:04.774Z,45.70
2023-02-09T01:17:04.909Z,47.60
2023-02-09T01:18:04.726Z,52.70
2023-02-09T01:19:04.716Z,49.20
2023-02-09T01:20:04.706Z,54.80
2023-02-09T01:21:04.693Z,50.90
2023-02-09T01:22:04.683Z,52.10
2023-02-09T01:23:04.671Z,50.10
2023-02-09T01:24:04.661Z,51.30
2023-02-09T01:25:04.677Z,48.70
2023-02-09T01:26:04.651Z,51.40
2023-02-09T01:27:04.626Z,51.40
2023-02-09T01:28:04.670Z,54.30
2023-02-09T01:29:04.609Z,56.70
2023-02-09T01:30:04.595Z,50.60
2023-02-09T01:31:04.729Z,47.80
2023-02-09T01:32:04.719Z,52.80
2023-02-09T01:33:04.573Z,55.00
2023-02-09T01:34:04.567Z,55.90
2023-02-09T01:35:04.540Z,56.80
2023-02-09T01:36:04.533Z,53.30
2023-02-09T01:37:04.528Z,51.50
2023-02-09T01:38:04.513Z,52.20
2023-02-09T01:39:04.523Z,50.30
2023-02-09T01:40:04.504Z,49.60
2023-02-09T01:41:04.480Z,55.10
2023-02-09T01:42:04.470Z,52.90
2023-02-09T01:43:04.471Z,54.00
2023-02-09T01:44:04.454Z,53.20
2023-02-09T01:45:04.447Z,52.70
2023-02-09T01:46:04.471Z,53.90
2023-02-09T01:47:04.443Z,49.30
2023-02-09T01:48:04.433Z,50.40
2023-02-09T01:49:04.396Z,54.70
2023-02-09T01:50:04.387Z,48.70
2023-02-09T01:51:04.381Z,46.50
2023-02-09T01:52:04.365Z,52.20
2023-02-09T01:53:04.361Z,54.20
2023-02-09T01:54:04.345Z,59.40
2023-02-09T01:55:04.335Z,52.50
2023-02-09T01:56:04.327Z,51.30
2023-02-09T01:57:04.312Z,54.20
2023-02-09T01:58:04.307Z,48.50
2023-02-09T01:59:04.295Z,59.40
2023-02-09T02:00:04.288Z,54.80
2023-02-09T02:01:04.345Z,53.20
2023-02-09T02:02:04.264Z,56.00
2023-02-09T02:03:04.255Z,51.70
2023-02-09T02:04:04.264Z,57.20
2023-02-09T02:05:04.229Z,51.60
2023-02-09T02:06:04.223Z,50.50
2023-02-09T02:07:04.206Z,47.50
2023-02-09T02:08:04.200Z,46.20
2023-02-09T02:09:04.190Z,53.50
2023-02-09T02:10:04.189Z,49.80
2023-02-09T02:11:04.162Z,53.00
2023-02-09T02:12:04.158Z,51.30
2023-02-09T02:13:04.148Z,56.70
2023-02-09T02:14:04.147Z,52.90
2023-02-09T02:15:04.117Z,50.00
2023-02-09T02:16:04.172Z,53.80
2023-02-09T02:17:04.096Z,54.30
2023-02-09T02:18:04.087Z,52.80
2023-02-09T02:19:04.078Z,54.80
2023-02-09T02:20:04.101Z,47.40
2023-02-09T02:21:04.058Z,46.30
2023-02-09T02:22:04.054Z,47.50
2023-02-09T02:23:04.031Z,44.40
2023-02-09T02:24:04.026Z,42.80
2023-02-09T02:25:04.022Z,45.40
2023-02-09T02:26:06.157Z,43.30
2023-02-09T02:27:04.005Z,44.50
2023-02-09T02:28:04.048Z,42.30
2023-02-09T02:29:03.974Z,44.40
2023-02-09T02:30:03.999Z,45.00
2023-02-09T02:31:04.093Z,46.90
2023-02-09T02:32:03.941Z,43.30
2023-02-09T02:33:03.925Z,40.10
2023-02-09T02:34:03.924Z,46.00
2023-02-09T02:35:03.921Z,46.80
2023-02-09T02:36:03.928Z,47.70
2023-02-09T02:37:03.888Z,42.90
2023-02-09T02:38:03.888Z,44.00
2023-02-09T02:39:03.867Z,44.60
2023-02-09T02:40:03.857Z,45.90
2023-02-09T02:41:03.862Z,41.70
2023-02-09T02:42:03.826Z,41.80
2023-02-09T02:43:03.813Z,47.20
2023-02-09T02:44:03.807Z,41.80
2023-02-09T02:45:03.806Z,43.10
2023-02-09T02:46:03.850Z,45.30
2023-02-09T02:47:03.774Z,42.60
2023-02-09T02:48:03.765Z,43.70
2023-02-09T02:49:03.769Z,43.90
2023-02-09T02:50:03.748Z,41.40
2023-02-09T02:51:03.787Z,39.80
2023-02-09T02:52:03.749Z,35.70
2023-02-09T02:53:03.717Z,41.60
2023-02-09T02:54:03.714Z,34.40
2023-02-09T02:55:03.695Z,34.30
2023-02-09T02:56:03.687Z,37.50
2023-02-09T02:57:03.700Z,38.30
2023-02-09T02:58:03.664Z,37.20
2023-02-09T02:59:03.658Z,36.60
2023-02-09T03:00:03.647Z,39.00
2023-02-09T03:01:03.631Z,33.60
2023-02-09T03:02:03.622Z,37.30
2023-02-09T03:03:03.608Z,35.00
2023-02-09T03:04:03.600Z,36.60
2023-02-09T03:05:03.625Z,34.80
2023-02-09T03:06:03.578Z,35.70
2023-02-09T03:07:03.569Z,35.70
2023-02-09T03:08:03.586Z,36.90
2023-02-09T03:09:03.546Z,36.10
2023-02-09T03:10:03.703Z,37.40
2023-02-09T03:11:03.525Z,35.30
2023-02-09T03:12:03.526Z,35.50
2023-02-09T03:13:03.502Z,37.20
2023-02-09T03:14:03.491Z,36.50
2023-02-09T03:15:03.481Z,38.60
2023-02-09T03:16:03.524Z,37.60
2023-02-09T03:17:03.460Z,33.60
2023-02-09T03:18:03.449Z,33.60
2023-02-09T03:19:03.447Z,36.40
2023-02-09T03:20:03.428Z,32.90
2023-02-09T03:21:03.418Z,33.00
2023-02-09T03:22:03.407Z,36.30
2023-02-09T03:23:03.396Z,36.20
2023-02-09T03:24:03.408Z,30.10
2023-02-09T03:25:03.375Z,34.30
2023-02-09T03:26:03.368Z,34.00
2023-02-09T03:27:03.353Z,38.20
2023-02-09T03:28:03.388Z,35.20
2023-02-09T03:29:03.345Z,35.60
2023-02-09T03:30:03.325Z,31.70
2023-02-09T03:31:03.460Z,36.90
2023-02-09T03:32:03.300Z,38.00
2023-02-09T03:33:03.308Z,32.00
2023-02-09T03:34:03.286Z,33.80
2023-02-09T03:35:03.281Z,34.00
2023-02-09T03:36:03.289Z,32.70
2023-02-09T03:37:03.327Z,31.50
2023-02-09T03:38:03.433Z,33.80
2023-02-09T03:39:03.385Z,30.60
2023-02-09T03:40:03.393Z,28.40
2023-02-09T03:41:03.374Z,29.60
2023-02-09T03:42:03.319Z,28.70
2023-02-09T03:43:03.181Z,32.30
2023-02-09T03:44:03.170Z,31.20
2023-02-09T03:45:03.159Z,33.50
2023-02-09T03:46:03.150Z,29.00
2023-02-09T03:47:03.137Z,28.60
2023-02-09T03:48:03.130Z,27.30
2023-02-09T03:49:03.117Z,26.80
2023-02-09T03:50:03.109Z,23.80
2023-02-09T03:51:03.094Z,28.90
2023-02-09T03:52:03.082Z,30.50
2023-02-09T03:53:03.076Z,27.00
2023-02-09T03:54:03.063Z,26.30
2023-02-09T03:55:03.229Z,27.10
2023-02-09T03:56:03.064Z,26.70
2023-02-09T03:57:03.201Z,27.50
2023-02-09T03:58:03.050Z,24.70
2023-02-09T03:59:03.009Z,26.30
2023-02-09T04:00:03.004Z,24.80
2023-02-09T04:01:03.040Z,25.30
2023-02-09T04:02:03.002Z,25.60
2023-02-09T04:03:02.977Z,27.50
2023-02-09T04:04:02.962Z,26.40
2023-02-09T04:05:04.770Z,27.40
2023-02-09T04:06:02.934Z,26.00
2023-02-09T04:07:02.918Z,23.00
2023-02-09T04:08:02.912Z,29.10
2023-02-09T04:09:02.923Z,19.10
2023-02-09T04:10:02.890Z,21.70
2023-02-09T04:11:02.907Z,20.30
2023-02-09T04:12:02.892Z,19.60
2023-02-09T04:13:02.864Z,18.00
2023-02-09T04:14:02.917Z,18.10
2023-02-09T04:15:02.842Z,20.60
2023-02-09T04:16:02.903Z,20.00
2023-02-09T04:17:02.822Z,20.20
2023-02-09T04:18:02.819Z,19.80
2023-02-09T04:19:02.871Z,17.80
2023-02-09T04:20:02.821Z,21.50
2023-02-09T04:21:02.771Z,20.20
2023-02-09T04:22:02.761Z,20.50
2023-02-09T04:23:02.749Z,17.60
2023-02-09T04:24:02.742Z,20.30
2023-02-09T04:25:02.729Z,20.30
2023-02-09T04:26:02.732Z,18.20
2023-02-09T04:27:02.706Z,18.70
2023-02-09T04:28:02.755Z,18.40
2023-02-09T04:29:02.686Z,18.70
2023-02-09T04:30:02.680Z,21.00
2023-02-09T04:31:02.755Z,21.10
2023-02-09T04:32:02.785Z,20.30
2023-02-09T04:33:02.649Z,20.30
2023-02-09T04:34:02.660Z,18.70
2023-02-09T04:35:02.624Z,21.40
2023-02-09T04:36:02.615Z,25.70
2023-02-09T04:37:02.601Z,20.40
2023-02-09T04:38:02.589Z,19.20
2023-02-09T04:39:02.577Z,21.00
2023-02-09T04:40:02.572Z,19.30
2023-02-09T04:41:02.558Z,20.00
2023-02-09T04:42:02.570Z,19.70
2023-02-09T04:43:02.540Z,19.50
2023-02-09T04:44:02.554Z,17.80
2023-02-09T04:45:02.516Z,22.00
2023-02-09T04:46:02.593Z,20.60
2023-02-09T04:47:02.508Z,18.90
2023-02-09T04:48:02.485Z,18.70
2023-02-09T04:49:02.476Z,18.80
2023-02-09T04:50:02.464Z,22.30
2023-02-09T04:51:02.448Z,20.00
2023-02-09T04:52:02.439Z,21.60
2023-02-09T04:53:02.426Z,17.00
2023-02-09T04:54:02.417Z,18.20
2023-02-09T04:55:02.419Z,18.50
2023-02-09T04:56:02.552Z,16.70
2023-02-09T04:57:02.384Z,21.00
2023-02-09T04:58:02.379Z,17.70
2023-02-09T04:59:02.368Z,22.90
2023-02-09T05:00:02.715Z,24.50
2023-02-09T05:01:02.414Z,20.00
2023-02-09T05:02:02.333Z,18.70
2023-02-09T05:03:02.334Z,18.10
2023-02-09T05:04:02.309Z,20.20
2023-02-09T05:05:02.294Z,19.10
2023-02-09T05:06:02.292Z,19.20
2023-02-09T05:07:02.276Z,19.80
2023-02-09T05:08:02.277Z,20.50
2023-02-09T05:09:02.252Z,20.10
2023-02-09T05:10:02.240Z,19.60
2023-02-09T05:11:02.232Z,20.00
2023-02-09T05:12:02.220Z,19.90
2023-02-09T05:13:02.208Z,19.70
2023-02-09T05:14:02.195Z,20.00
2023-02-09T05:15:02.187Z,24.50
2023-02-09T05:16:02.197Z,34.10
2023-02-09T05:17:02.213Z,23.60
2023-02-09T05:18:02.149Z,22.90
2023-02-09T05:19:02.168Z,22.20
2023-02-09T05:20:02.140Z,19.80
2023-02-09T05:21:02.129Z,20.10
2023-02-09T05:22:02.115Z,20.80
2023-02-09T05:23:02.101Z,19.50
2023-02-09T05:24:02.087Z,19.70
2023-02-09T05:25:02.090Z,16.50
2023-02-09T05:26:02.066Z,17.30
2023-02-09T05:27:02.061Z,17.20
2023-02-09T05:28:02.083Z,16.40
2023-02-09T05:29:02.035Z,15.30
2023-02-09T05:30:02.030Z,17.40
2023-02-09T05:31:02.067Z,16.10
2023-02-09T05:32:02.120Z,15.80
2023-02-09T05:33:02.001Z,17.20
2023-02-09T05:34:01.979Z,16.20
2023-02-09T05:35:01.966Z,14.80
2023-02-09T05:36:01.954Z,15.10
2023-02-09T05:37:01.950Z,16.50
2023-02-09T05:38:01.934Z,16.00
2023-02-09T05:39:01.932Z,15.90
2023-02-09T05:40:01.936Z,17.40
2023-02-09T05:41:01.903Z,15.30
2023-02-09T05:42:01.896Z,14.10
2023-02-09T05:43:01.885Z,16.80
2023-02-09T05:44:01.873Z,16.60
2023-02-09T05:45:01.860Z,15.00
2023-02-09T05:46:01.913Z,16.30
2023-02-09T05:47:01.838Z,14.20
2023-02-09T05:48:01.847Z,16.00
2023-02-09T05:49:01.838Z,16.90
2023-02-09T05:50:01.802Z,15.80
2023-02-09T05:51:01.793Z,15.70
2023-02-09T05:52:01.781Z,14.10
2023-02-09T05:53:01.785Z,15.00
2023-02-09T05:54:01.759Z,15.20
2023-02-09T05:55:01.746Z,16.60
2023-02-09T05:56:01.739Z,14.60
2023-02-09T05:57:01.725Z,14.90
2023-02-09T05:58:01.718Z,16.30
2023-02-09T05:59:03.482Z,16.00
2023-02-09T06:00:01.709Z,14.70
2023-02-09T06:01:01.686Z,14.40
2023-02-09T06:02:01.724Z,15.90
2023-02-09T06:03:01.658Z,15.40
2023-02-09T06:04:01.670Z,17.00
2023-02-09T06:05:01.640Z,16.10
2023-02-09T06:06:01.621Z,13.90
2023-02-09T06:07:01.618Z,15.90
2023-02-09T06:08:01.602Z,14.50
2023-02-09T06:09:01.591Z,15.70
2023-02-09T06:10:01.590Z,16.80
2023-02-09T06:11:01.572Z,15.20
2023-02-09T06:12:01.589Z,15.40
2023-02-09T06:13:01.565Z,14.30
2023-02-09T06:14:01.570Z,16.10
2023-02-09T06:15:01.593Z,15.30
2023-02-09T06:16:01.607Z,16.60
2023-02-09T06:17:01.544Z,15.30
2023-02-09T06:18:01.490Z,16.00
2023-02-09T06:19:01.481Z,15.50
2023-02-09T06:20:01.492Z,16.80
2023-02-09T06:21:01.465Z,15.20
2023-02-09T06:22:01.444Z,15.40
2023-02-09T06:23:01.438Z,14.30
2023-02-09T06:24:01.436Z,16.80
2023-02-09T06:25:01.417Z,17.10
2023-02-09T06:26:01.406Z,16.10
2023-02-09T06:27:01.392Z,16.50
2023-02-09T06:28:01.407Z,14.70
2023-02-09T06:29:01.371Z,15.70
2023-02-09T06:30:01.380Z,16.80
2023-02-09T06:31:01.563Z,16.90
2023-02-09T06:32:01.456Z,16.70
2023-02-09T06:33:01.332Z,16.40
2023-02-09T06:34:01.319Z,16.60
2023-02-09T06:35:01.318Z,15.80
2023-02-09T06:36:01.319Z,16.50
2023-02-09T06:37:01.290Z,15.30
2023-02-09T06:38:01.286Z,15.70
2023-02-09T06:39:01.267Z,18.40
2023-02-09T06:40:01.251Z,17.40
2023-02-09T06:41:01.253Z,20.80
2023-02-09T06:42:01.240Z,17.00
2023-02-09T06:43:01.220Z,18.00
2023-02-09T06:44:01.208Z,15.80
2023-02-09T06:45:01.205Z,15.10
2023-02-09T06:46:01.247Z,16.20
2023-02-09T06:47:01.180Z,21.60
2023-02-09T06:48:01.164Z,22.10
2023-02-09T06:49:01.177Z,31.00
2023-02-09T06:50:01.168Z,20.10
2023-02-09T06:51:01.429Z,18.40
2023-02-09T06:52:01.149Z,15.90
2023-02-09T06:53:01.112Z,16.60
2023-02-09T06:54:01.115Z,17.50
2023-02-09T06:55:01.091Z,17.90
2023-02-09T06:56:01.084Z,14.10
2023-02-09T06:57:01.071Z,17.10
2023-02-09T06:58:01.065Z,18.80
2023-02-09T06:59:01.388Z,17.70
2023-02-09T07:00:01.050Z,16.60
2023-02-09T07:01:01.028Z,15.90
2023-02-09T07:02:01.070Z,16.10
2023-02-09T07:03:01.089Z,17.70
2023-02-09T07:04:00.992Z,18.90
2023-02-09T07:05:01.259Z,15.90
2023-02-09T07:06:00.972Z,20.30
2023-02-09T07:07:01.067Z,18.60
2023-02-09T07:08:00.974Z,18.10
2023-02-09T07:09:00.952Z,17.70
2023-02-09T07:10:00.933Z,15.60
2023-02-09T07:11:00.917Z,16.40
2023-02-09T07:12:00.907Z,17.10
2023-02-09T07:13:00.898Z,16.60
2023-02-09T07:14:00.909Z,18.40
2023-02-09T07:15:00.894Z,17.80
2023-02-09T07:16:00.907Z,16.60
2023-02-09T07:17:00.861Z,14.60
2023-02-09T07:18:00.841Z,16.70
2023-02-09T07:19:00.832Z,20.40
2023-02-09T07:20:00.836Z,22.20
2023-02-09T07:21:00.816Z,20.50
2023-02-09T07:22:00.810Z,16.70
2023-02-09T07:23:00.791Z,17.30
2023-02-09T07:24:00.803Z,17.00
2023-02-09T07:25:00.781Z,15.50
2023-02-09T07:26:00.757Z,16.10
2023-02-09T07:27:00.745Z,17.50
2023-02-09T07:28:00.763Z,15.40
2023-02-09T07:29:00.723Z,15.40
2023-02-09T07:30:01.370Z,16.90
2023-02-09T07:31:00.914Z,18.10
2023-02-09T07:32:00.737Z,17.50
2023-02-09T07:33:00.678Z,15.30
2023-02-09T07:34:00.679Z,15.20
2023-02-09T07:35:00.674Z,18.20
2023-02-09T07:36:00.649Z,16.90
2023-02-09T07:37:00.637Z,15.90
2023-02-09T07:38:00.624Z,18.00
2023-02-09T07:39:00.616Z,19.30
2023-02-09T07:40:00.635Z,16.40
2023-02-09T07:41:00.587Z,15.90
2023-02-09T07:42:00.591Z,16.70
2023-02-09T07:43:00.571Z,17.00
2023-02-09T07:44:00.560Z,16.90
2023-02-09T07:45:00.557Z,20.90
2023-02-09T07:46:00.558Z,15.90
2023-02-09T07:47:00.535Z,24.30
2023-02-09T07:48:00.548Z,19.40
2023-02-09T07:49:01.493Z,16.30
2023-02-09T07:50:00.496Z,18.00
2023-02-09T07:51:00.476Z,18.30
2023-02-09T07:52:00.516Z,18.40
2023-02-09T07:53:00.458Z,19.10
2023-02-09T07:54:00.459Z,19.30
2023-02-09T07:55:00.438Z,15.60
2023-02-09T07:56:00.536Z,16.00
2023-02-09T07:57:00.429Z,22.50
2023-02-09T07:58:00.405Z,16.70
2023-02-09T07:59:00.390Z,17.80
2023-02-09T08:00:00.379Z,18.60
2023-02-09T08:01:00.370Z,18.20
2023-02-09T08:02:00.522Z,20.00
2023-02-09T08:03:00.353Z,15.70
2023-02-09T08:04:00.338Z,17.30
2023-02-09T08:05:00.465Z,17.10
2023-02-09T08:06:00.319Z,17.00
2023-02-09T08:07:00.303Z,19.30
2023-02-09T08:08:00.324Z,17.00
2023-02-09T08:09:00.281Z,19.50
2023-02-09T08:10:00.267Z,16.90
2023-02-09T08:11:00.267Z,16.90
2023-02-09T08:12:00.314Z,19.80
2023-02-09T08:13:00.272Z,17.50
2023-02-09T08:14:00.232Z,15.70
2023-02-09T08:15:00.228Z,18.10
2023-02-09T08:16:00.281Z,17.30
2023-02-09T08:17:00.198Z,17.20
2023-02-09T08:18:00.188Z,17.70
2023-02-09T08:19:00.181Z,16.30
2023-02-09T08:20:00.263Z,18.10
2023-02-09T08:21:00.159Z,21.00
2023-02-09T08:22:00.168Z,15.30
2023-02-09T08:23:00.131Z,16.40
2023-02-09T08:24:00.170Z,17.70
2023-02-09T08:25:00.155Z,18.10
2023-02-09T08:26:00.122Z,16.40
2023-02-09T08:27:00.111Z,17.30
2023-02-09T08:28:00.176Z,21.80
2023-02-09T08:29:00.167Z,21.20
2023-02-09T08:30:00.076Z,18.80
2023-02-09T08:31:00.096Z,16.60
2023-02-09T08:32:00.121Z,15.40
2023-02-09T08:33:00.030Z,17.10
2023-02-09T08:34:00.014Z,16.90
2023-02-09T08:35:00.026Z,16.10
2023-02-09T08:35:59.993Z,18.50
2023-02-09T08:36:59.981Z,15.20
2023-02-09T08:37:59.981Z,16.10
2023-02-09T08:38:59.988Z,16.40
2023-02-09T08:39:59.951Z,15.90
2023-02-09T08:40:59.936Z,16.50
2023-02-09T08:41:59.926Z,16.50
2023-02-09T08:42:59.916Z,16.40
2023-02-09T08:43:59.954Z,18.80
2023-02-09T08:44:59.900Z,18.40
2023-02-09T08:45:59.979Z,15.70
2023-02-09T08:47:00.031Z,16.70
2023-02-09T08:47:59.892Z,15.70
2023-02-09T08:48:59.854Z,17.20
2023-02-09T08:49:59.842Z,17.00
2023-02-09T08:50:59.831Z,14.80
2023-02-09T08:51:59.823Z,16.90
2023-02-09T08:52:59.808Z,16.20
2023-02-09T08:53:59.802Z,16.20
2023-02-09T08:54:59.786Z,18.90
2023-02-09T08:55:59.780Z,19.30
2023-02-09T08:56:59.764Z,15.60
2023-02-09T08:57:59.755Z,17.10
2023-02-09T08:58:59.742Z,17.00
2023-02-09T08:59:59.753Z,16.50
2023-02-09T09:00:59.879Z,16.80
2023-02-09T09:01:59.705Z,15.50
2023-02-09T09:02:59.707Z,17.00
2023-02-09T09:03:59.818Z,18.90
2023-02-09T09:04:59.681Z,15.90
2023-02-09T09:05:59.667Z,17.70
2023-02-09T09:06:59.658Z,35.70
2023-02-09T09:07:59.639Z,25.40
2023-02-09T09:08:59.627Z,21.70
2023-02-09T09:09:59.622Z,16.10
2023-02-09T09:10:59.611Z,17.10
2023-02-09T09:11:59.594Z,15.80
2023-02-09T09:12:59.582Z,15.50
2023-02-09T09:13:59.579Z,17.50
2023-02-09T09:14:59.576Z,16.10
2023-02-09T09:15:59.601Z,17.60
2023-02-09T09:16:59.645Z,15.70
2023-02-09T09:17:59.535Z,21.00
2023-02-09T09:18:59.523Z,15.60
2023-02-09T09:19:59.533Z,15.50
2023-02-09T09:20:59.503Z,16.60
2023-02-09T09:21:59.489Z,15.60
2023-02-09T09:22:59.609Z,15.70
2023-02-09T09:23:59.463Z,15.80
2023-02-09T09:24:59.456Z,16.80
2023-02-09T09:25:59.446Z,16.40
2023-02-09T09:26:59.445Z,14.80
2023-02-09T09:27:59.504Z,14.90
2023-02-09T09:28:59.435Z,16.10
2023-02-09T09:29:59.400Z,16.10
2023-02-09T09:30:59.473Z,17.90
2023-02-09T09:31:59.473Z,15.50
2023-02-09T09:32:59.479Z,15.20
2023-02-09T09:33:59.366Z,16.60
2023-02-09T09:34:59.344Z,15.10
2023-02-09T09:35:59.357Z,17.50
2023-02-09T09:36:59.337Z,20.40
2023-02-09T09:37:59.322Z,15.90
2023-02-09T09:38:59.307Z,16.70
2023-02-09T09:39:59.297Z,18.50
2023-02-09T09:40:59.284Z,14.40
2023-02-09T09:41:59.294Z,16.30
2023-02-09T09:42:59.501Z,16.50
2023-02-09T09:43:59.247Z,15.00
2023-02-09T09:44:59.238Z,17.70
2023-02-09T09:45:59.234Z,19.20
2023-02-09T09:46:59.213Z,14.90
2023-02-09T09:47:59.235Z,16.60
2023-02-09T09:48:59.190Z,15.70
2023-02-09T09:49:59.179Z,14.90
2023-02-09T09:50:59.174Z,16.40
2023-02-09T09:51:59.275Z,16.90
2023-02-09T09:52:59.149Z,24.70
2023-02-09T09:53:59.136Z,16.30
2023-02-09T09:54:59.126Z,17.90
2023-02-09T09:55:59.115Z,16.70
2023-02-09T09:56:59.104Z,16.90
2023-02-09T09:57:59.093Z,15.50
2023-02-09T09:58:59.078Z,14.70
2023-02-09T09:59:59.067Z,16.30
2023-02-09T10:00:59.092Z,15.10
2023-02-09T10:01:59.047Z,15.20
2023-02-09T10:02:59.034Z,14.20
2023-02-09T10:03:59.123Z,14.80
2023-02-09T10:04:59.046Z,15.10
2023-02-09T10:05:59.003Z,18.20
2023-02-09T10:06:58.989Z,14.30
2023-02-09T10:07:58.981Z,14.80
2023-02-09T10:08:58.972Z,13.90
2023-02-09T10:09:58.960Z,14.50
2023-02-09T10:10:58.947Z,14.40
2023-02-09T10:11:58.937Z,16.50
2023-02-09T10:12:58.933Z,16.10
2023-02-09T10:13:58.927Z,14.90
2023-02-09T10:14:58.905Z,14.60
2023-02-09T10:15:58.894Z,14.20
2023-02-09T10:16:58.896Z,14.70
2023-02-09T10:17:58.890Z,18.40
2023-02-09T10:18:58.873Z,15.90
2023-02-09T10:19:58.874Z,16.60
2023-02-09T10:20:58.835Z,15.30
2023-02-09T10:21:58.834Z,15.90
2023-02-09T10:22:58.812Z,16.50
2023-02-09T10:23:58.810Z,14.50
2023-02-09T10:24:58.798Z,14.50
2023-02-09T10:25:58.778Z,15.10
2023-02-09T10:26:58.768Z,16.10
2023-02-09T10:27:58.801Z,16.90
2023-02-09T10:28:58.748Z,16.00
2023-02-09T10:29:58.742Z,36.80
2023-02-09T10:30:58.858Z,29.60
2023-02-09T10:31:58.746Z,18.60
2023-02-09T10:32:58.706Z,16.10
2023-02-09T10:33:58.694Z,19.50
2023-02-09T10:34:58.688Z,14.80
2023-02-09T10:35:58.710Z,18.90
2023-02-09T10:36:58.662Z,15.40
2023-02-09T10:37:58.669Z,15.10
2023-02-09T10:38:58.631Z,14.70
2023-02-09T10:39:58.624Z,15.70
2023-02-09T10:40:58.615Z,14.20
2023-02-09T10:41:58.603Z,15.90
2023-02-09T10:42:58.599Z,13.80
2023-02-09T10:43:58.580Z,13.80
2023-02-09T10:44:58.567Z,15.30
2023-02-09T10:45:58.691Z,17.40
2023-02-09T10:46:58.595Z,15.90
2023-02-09T10:47:58.601Z,15.80
2023-02-09T10:48:58.596Z,17.70
2023-02-09T10:49:58.623Z,14.90
2023-02-09T10:50:58.620Z,16.20
2023-02-09T10:51:58.624Z,16.60
2023-02-09T10:52:58.612Z,21.00
2023-02-09T10:53:58.628Z,16.20
2023-02-09T10:54:58.583Z,18.80
2023-02-09T10:55:58.452Z,15.00
2023-02-09T10:56:58.432Z,15.30
2023-02-09T10:57:58.423Z,15.00
2023-02-09T10:58:58.421Z,16.40
2023-02-09T10:59:58.451Z,15.40
2023-02-09T11:00:58.419Z,15.40
2023-02-09T11:01:58.404Z,16.10
2023-02-09T11:02:58.369Z,16.70
2023-02-09T11:03:58.388Z,16.30
2023-02-09T11:04:59.025Z,15.60
2023-02-09T11:05:58.341Z,13.40
2023-02-09T11:06:58.322Z,30.60
2023-02-09T11:07:58.337Z,18.30
2023-02-09T11:08:58.303Z,15.60
2023-02-09T11:09:58.305Z,15.80
2023-02-09T11:10:58.283Z,16.00
2023-02-09T11:11:58.276Z,17.00
2023-02-09T11:12:58.264Z,15.90
2023-02-09T11:13:58.250Z,16.60
2023-02-09T11:14:58.240Z,16.60
2023-02-09T11:15:58.322Z,14.90
2023-02-09T11:16:58.218Z,15.10
2023-02-09T11:17:58.258Z,15.50
2023-02-09T11:18:58.198Z,14.90
2023-02-09T11:19:58.186Z,18.60
2023-02-09T11:20:58.177Z,15.50
2023-02-09T11:21:58.180Z,17.60
2023-02-09T11:22:58.158Z,15.20
2023-02-09T11:23:58.172Z,14.70
2023-02-09T11:24:58.128Z,15.20
2023-02-09T11:25:58.119Z,16.40
2023-02-09T11:26:58.268Z,16.70
2023-02-09T11:27:58.126Z,15.50
2023-02-09T11:28:58.085Z,15.90
2023-02-09T11:29:58.080Z,15.70
2023-02-09T11:30:58.210Z,15.70
2023-02-09T11:31:58.149Z,15.60
2023-02-09T11:32:58.062Z,14.60
2023-02-09T11:33:58.049Z,15.00
2023-02-09T11:34:58.042Z,14.40
2023-02-09T11:35:58.011Z,16.50
2023-02-09T11:36:58.026Z,23.40
2023-02-09T11:37:58.006Z,19.90
2023-02-09T11:38:57.976Z,18.70
2023-02-09T11:39:57.990Z,17.40
2023-02-09T11:40:57.961Z,16.00
2023-02-09T11:41:57.946Z,18.60
2023-02-09T11:42:57.932Z,19.00
2023-02-09T11:43:57.922Z,15.70
2023-02-09T11:44:57.910Z,16.70
2023-02-09T11:45:57.984Z,15.30
2023-02-09T11:46:57.887Z,16.10
2023-02-09T11:47:57.874Z,17.20
2023-02-09T11:48:57.870Z,16.30
2023-02-09T11:49:57.853Z,14.30
2023-02-09T11:50:57.858Z,17.30
2023-02-09T11:51:57.831Z,22.10
2023-02-09T11:52:57.821Z,16.00
2023-02-09T11:53:57.809Z,15.80
2023-02-09T11:54:57.801Z,17.30
2023-02-09T11:55:57.815Z,20.20
2023-02-09T11:56:57.776Z,14.10
2023-02-09T11:57:57.767Z,15.10
2023-02-09T11:58:57.790Z,16.00
2023-02-09T11:59:57.856Z,15.10
2023-02-09T12:01:07.009Z,17.30
2023-02-09T12:01:58.756Z,18.10
2023-02-09T12:02:57.806Z,18.00
2023-02-09T12:03:57.704Z,17.50
2023-02-09T12:04:57.696Z,18.40
2023-02-09T12:05:57.686Z,16.90
2023-02-09T12:06:57.780Z,14.70
2023-02-09T12:07:57.658Z,16.50
2023-02-09T12:08:57.658Z,19.30
2023-02-09T12:09:57.641Z,37.50
2023-02-09T12:10:57.633Z,18.70
2023-02-09T12:11:57.646Z,17.80
2023-02-09T12:12:57.599Z,17.20
2023-02-09T12:13:57.602Z,15.40
2023-02-09T12:14:57.578Z,19.00
2023-02-09T12:15:57.701Z,15.90
2023-02-09T12:16:57.564Z,17.30
2023-02-09T12:17:57.550Z,20.10
2023-02-09T12:18:57.535Z,20.30
2023-02-09T12:19:57.527Z,17.10
2023-02-09T12:20:57.514Z,16.80
2023-02-09T12:21:57.506Z,16.60
2023-02-09T12:22:57.492Z,15.50
2023-02-09T12:23:57.486Z,16.20
2023-02-09T12:24:57.469Z,15.00
2023-02-09T12:25:57.472Z,19.00
2023-02-09T12:26:57.446Z,18.40
2023-02-09T12:27:57.487Z,18.20
2023-02-09T12:28:57.423Z,16.90
2023-02-09T12:29:57.417Z,22.30
2023-02-09T12:30:57.425Z,18.00
2023-02-09T12:31:57.420Z,14.60
2023-02-09T12:32:57.377Z,16.40
2023-02-09T12:33:57.368Z,16.60
2023-02-09T12:34:57.357Z,16.90
2023-02-09T12:35:57.347Z,15.60
2023-02-09T12:36:57.333Z,19.80
2023-02-09T12:37:57.325Z,17.30
2023-02-09T12:39:04.539Z,16.80
2023-02-09T12:39:59.887Z,17.10
2023-02-09T12:40:57.287Z,14.60
2023-02-09T12:41:57.804Z,15.90
2023-02-09T12:42:57.277Z,17.90
2023-02-09T12:43:57.282Z,17.30
2023-02-09T12:44:57.260Z,18.30
2023-02-09T12:45:57.284Z,16.30
2023-02-09T12:46:57.221Z,17.50
2023-02-09T12:47:57.214Z,14.90
2023-02-09T12:48:57.200Z,19.40
2023-02-09T12:49:57.193Z,16.80
2023-02-09T12:50:57.180Z,21.70
2023-02-09T12:51:57.169Z,15.50